sensor_id;sensor_type;location;lat;lon;timestamp;pressure;altitude;pressure_sealevel;temperature;humidity
4024;BME280;2026;51.002;13.668;2023-01-13T00:03:40;98326.75;;;9.86;74.01
4024;BME280;2026;51.002;13.668;2023-01-13T00:08:43;98331.41;;;9.84;74.33
4024;BME280;2026;51.002;13.668;2023-01-13T00:13:46;98324.47;;;9.78;75.45
4024;BME280;2026;51.002;13.668;2023-01-13T00:18:50;98320.22;;;9.65;75.48
4024;BME280;2026;51.002;13.668;2023-01-13T00:23:54;98314.03;;;9.59;76.54
4024;BME280;2026;51.002;13.668;2023-01-13T00:28:58;98318.78;;;9.50;77.96
4024;BME280;2026;51.002;13.668;2023-01-13T00:34:02;98321.22;;;9.33;79.37
4024;BME280;2026;51.002;13.668;2023-01-13T00:39:06;98322.75;;;9.22;80.82
4024;BME280;2026;51.002;13.668;2023-01-13T00:44:08;98310.28;;;9.25;80.91
4024;BME280;2026;51.002;13.668;2023-01-13T00:49:13;98303.59;;;9.10;81.15
4024;BME280;2026;51.002;13.668;2023-01-13T00:54:16;98297.00;;;9.07;81.42
4024;BME280;2026;51.002;13.668;2023-01-13T00:59:19;98296.41;;;9.05;81.24
4024;BME280;2026;51.002;13.668;2023-01-13T01:04:23;98298.44;;;9.03;81.16
4024;BME280;2026;51.002;13.668;2023-01-13T01:09:26;98303.25;;;9.06;81.48
4024;BME280;2026;51.002;13.668;2023-01-13T01:14:33;98294.75;;;9.11;80.75
4024;BME280;2026;51.002;13.668;2023-01-13T01:19:38;98287.56;;;9.06;80.90
4024;BME280;2026;51.002;13.668;2023-01-13T01:24:41;98296.69;;;9.16;79.92
4024;BME280;2026;51.002;13.668;2023-01-13T01:29:44;98289.97;;;9.20;79.55
4024;BME280;2026;51.002;13.668;2023-01-13T01:34:49;98278.56;;;9.33;77.69
4024;BME280;2026;51.002;13.668;2023-01-13T01:39:52;98280.50;;;9.37;77.18
4024;BME280;2026;51.002;13.668;2023-01-13T01:45:00;98285.84;;;9.43;77.03
4024;BME280;2026;51.002;13.668;2023-01-13T01:50:06;98290.66;;;9.46;77.11
4024;BME280;2026;51.002;13.668;2023-01-13T01:55:13;98286.56;;;9.50;76.41
4024;BME280;2026;51.002;13.668;2023-01-13T02:00:18;98286.56;;;9.50;76.07
4024;BME280;2026;51.002;13.668;2023-01-13T02:05:22;98282.88;;;9.58;75.91
4024;BME280;2026;51.002;13.668;2023-01-13T02:10:27;98281.97;;;9.64;75.34
4024;BME280;2026;51.002;13.668;2023-01-13T02:15:34;98273.00;;;9.72;74.87
4024;BME280;2026;51.002;13.668;2023-01-13T02:20:57;98259.34;;;9.70;74.79
4024;BME280;2026;51.002;13.668;2023-01-13T02:26:24;98257.50;;;9.70;74.90
4024;BME280;2026;51.002;13.668;2023-01-13T02:31:34;98258.88;;;9.73;74.59
4024;BME280;2026;51.002;13.668;2023-01-13T02:36:50;98250.47;;;9.71;74.55
4024;BME280;2026;51.002;13.668;2023-01-13T02:42:01;98251.94;;;9.78;74.26
4024;BME280;2026;51.002;13.668;2023-01-13T02:47:27;98241.72;;;9.77;74.21
4024;BME280;2026;51.002;13.668;2023-01-13T02:52:36;98240.34;;;9.74;74.47
4024;BME280;2026;51.002;13.668;2023-01-13T02:57:40;98236.56;;;9.82;73.75
4024;BME280;2026;51.002;13.668;2023-01-13T03:02:46;98237.03;;;9.79;73.79
4024;BME280;2026;51.002;13.668;2023-01-13T03:08:14;98227.38;;;9.80;73.94
4024;BME280;2026;51.002;13.668;2023-01-13T03:13:26;98226.91;;;9.83;73.90
4024;BME280;2026;51.002;13.668;2023-01-13T03:18:40;98232.16;;;9.95;73.44
4024;BME280;2026;51.002;13.668;2023-01-13T03:23:49;98230.00;;;9.91;73.64
4024;BME280;2026;51.002;13.668;2023-01-13T03:28:55;98234.22;;;10.04;72.66
4024;BME280;2026;51.002;13.668;2023-01-13T03:34:04;98221.34;;;10.03;72.90
4024;BME280;2026;51.002;13.668;2023-01-13T03:39:11;98223.06;;;9.97;73.42
4024;BME280;2026;51.002;13.668;2023-01-13T03:44:19;98222.50;;;10.07;72.69
4024;BME280;2026;51.002;13.668;2023-01-13T03:49:30;98218.50;;;10.04;72.76
4024;BME280;2026;51.002;13.668;2023-01-13T03:54:41;98215.53;;;10.01;73.06
4024;BME280;2026;51.002;13.668;2023-01-13T03:59:49;98217.13;;;10.02;73.13
4024;BME280;2026;51.002;13.668;2023-01-13T04:04:57;98219.28;;;10.05;72.70
4024;BME280;2026;51.002;13.668;2023-01-13T04:10:03;98221.91;;;10.05;72.94
4024;BME280;2026;51.002;13.668;2023-01-13T04:15:08;98222.38;;;10.02;73.10
4024;BME280;2026;51.002;13.668;2023-01-13T04:20:13;98208.38;;;10.08;72.81
4024;BME280;2026;51.002;13.668;2023-01-13T04:25:16;98203.69;;;10.10;72.81
4024;BME280;2026;51.002;13.668;2023-01-13T04:30:19;98204.50;;;9.99;73.29
4024;BME280;2026;51.002;13.668;2023-01-13T04:35:24;98198.13;;;9.95;73.78
4024;BME280;2026;51.002;13.668;2023-01-13T04:40:26;98201.19;;;10.03;73.40
4024;BME280;2026;51.002;13.668;2023-01-13T04:45:29;98201.06;;;10.10;73.14
4024;BME280;2026;51.002;13.668;2023-01-13T04:50:34;98204.25;;;10.12;72.69
4024;BME280;2026;51.002;13.668;2023-01-13T04:55:37;98201.06;;;10.10;73.20
4024;BME280;2026;51.002;13.668;2023-01-13T05:00:40;98198.09;;;10.07;73.35
4024;BME280;2026;51.002;13.668;2023-01-13T05:05:49;98191.63;;;10.09;73.06
4024;BME280;2026;51.002;13.668;2023-01-13T05:10:52;98195.25;;;10.08;72.70
4024;BME280;2026;51.002;13.668;2023-01-13T05:15:55;98204.25;;;10.12;72.91
4024;BME280;2026;51.002;13.668;2023-01-13T05:21:19;98203.47;;;10.12;73.01
4024;BME280;2026;51.002;13.668;2023-01-13T05:26:40;98200.59;;;10.13;73.12
4024;BME280;2026;51.002;13.668;2023-01-13T05:31:43;98202.22;;;10.14;72.66
4024;BME280;2026;51.002;13.668;2023-01-13T05:36:47;98195.47;;;10.18;72.42
4024;BME280;2026;51.002;13.668;2023-01-13T05:41:50;98198.66;;;10.09;72.96
4024;BME280;2026;51.002;13.668;2023-01-13T05:47:11;98181.13;;;10.09;73.26
4024;BME280;2026;51.002;13.668;2023-01-13T05:52:15;98175.44;;;10.12;72.73
4024;BME280;2026;51.002;13.668;2023-01-13T05:57:18;98190.13;;;10.13;72.73
4024;BME280;2026;51.002;13.668;2023-01-13T06:02:21;98196.28;;;10.07;72.94
4024;BME280;2026;51.002;13.668;2023-01-13T06:07:26;98189.56;;;9.99;73.23
4024;BME280;2026;51.002;13.668;2023-01-13T06:12:29;98197.75;;;10.03;72.96
4024;BME280;2026;51.002;13.668;2023-01-13T06:17:32;98194.13;;;10.04;73.15
4024;BME280;2026;51.002;13.668;2023-01-13T06:22:39;98191.97;;;10.01;73.16
4024;BME280;2026;51.002;13.668;2023-01-13T06:27:44;98199.25;;;9.99;73.17
4024;BME280;2026;51.002;13.668;2023-01-13T06:32:51;98211.00;;;9.96;73.49
4024;BME280;2026;51.002;13.668;2023-01-13T06:37:57;98217.47;;;10.05;73.03
4024;BME280;2026;51.002;13.668;2023-01-13T06:43:01;98216.91;;;10.03;73.15
4024;BME280;2026;51.002;13.668;2023-01-13T06:48:19;98230.56;;;10.05;72.78
4024;BME280;2026;51.002;13.668;2023-01-13T06:53:25;98222.56;;;10.12;72.66
4024;BME280;2026;51.002;13.668;2023-01-13T06:58:28;98228.84;;;10.11;72.55
4024;BME280;2026;51.002;13.668;2023-01-13T07:03:31;98236.03;;;10.04;73.23
4024;BME280;2026;51.002;13.668;2023-01-13T07:08:35;98238.19;;;10.07;72.97
4024;BME280;2026;51.002;13.668;2023-01-13T07:13:38;98242.50;;;10.01;72.76
4024;BME280;2026;51.002;13.668;2023-01-13T07:18:58;98229.19;;;10.03;73.08
4024;BME280;2026;51.002;13.668;2023-01-13T07:24:03;98243.09;;;9.91;73.34
4024;BME280;2026;51.002;13.668;2023-01-13T07:29:06;98234.22;;;10.04;72.53
4024;BME280;2026;51.002;13.668;2023-01-13T07:34:09;98237.06;;;10.03;72.31
4024;BME280;2026;51.002;13.668;2023-01-13T07:39:13;98240.56;;;10.09;71.97
4024;BME280;2026;51.002;13.668;2023-01-13T07:44:16;98232.03;;;10.13;71.51
4024;BME280;2026;51.002;13.668;2023-01-13T07:49:19;98226.00;;;10.13;71.36
4024;BME280;2026;51.002;13.668;2023-01-13T07:54:23;98231.94;;;10.08;71.12
4024;BME280;2026;51.002;13.668;2023-01-13T07:59:41;98234.56;;;10.08;71.34
4024;BME280;2026;51.002;13.668;2023-01-13T08:04:43;98236.84;;;10.04;71.06
4024;BME280;2026;51.002;13.668;2023-01-13T08:09:48;98232.97;;;10.07;71.29
4024;BME280;2026;51.002;13.668;2023-01-13T08:14:51;98236.38;;;10.08;71.21
4024;BME280;2026;51.002;13.668;2023-01-13T08:19:54;98223.59;;;10.11;70.68
4024;BME280;2026;51.002;13.668;2023-01-13T08:24:59;98223.94;;;10.15;70.90
4024;BME280;2026;51.002;13.668;2023-01-13T08:30:02;98225.78;;;10.14;70.63
4024;BME280;2026;51.002;13.668;2023-01-13T08:35:06;98215.31;;;10.14;70.52
4024;BME280;2026;51.002;13.668;2023-01-13T08:40:12;98216.53;;;10.24;70.61
4024;BME280;2026;51.002;13.668;2023-01-13T08:45:16;98219.25;;;10.29;70.16
4024;BME280;2026;51.002;13.668;2023-01-13T08:50:19;98214.81;;;10.29;70.09
4024;BME280;2026;51.002;13.668;2023-01-13T08:55:23;98208.00;;;10.28;70.81
4024;BME280;2026;51.002;13.668;2023-01-13T09:00:26;98197.03;;;10.31;70.09
4024;BME280;2026;51.002;13.668;2023-01-13T09:05:31;98219.47;;;10.51;69.48
4024;BME280;2026;51.002;13.668;2023-01-13T09:10:35;98229.44;;;10.66;68.64
4024;BME280;2026;51.002;13.668;2023-01-13T09:15:43;98246.31;;;10.70;69.00
4024;BME280;2026;51.002;13.668;2023-01-13T09:20:46;98260.13;;;10.66;69.71
4024;BME280;2026;51.002;13.668;2023-01-13T09:25:52;98292.59;;;10.65;70.03
4024;BME280;2026;51.002;13.668;2023-01-13T09:30:59;98364.47;;;9.97;70.04
4024;BME280;2026;51.002;13.668;2023-01-13T09:36:03;98368.25;;;8.40;79.82
4024;BME280;2026;51.002;13.668;2023-01-13T09:41:14;98375.19;;;8.27;83.05
4024;BME280;2026;51.002;13.668;2023-01-13T09:46:38;98370.91;;;8.08;83.89
4024;BME280;2026;51.002;13.668;2023-01-13T09:51:52;98362.22;;;8.39;83.06
4024;BME280;2026;51.002;13.668;2023-01-13T09:56:58;98370.19;;;8.70;79.84
4024;BME280;2026;51.002;13.668;2023-01-13T10:02:12;98383.91;;;8.84;80.98
4024;BME280;2026;51.002;13.668;2023-01-13T10:07:20;98387.78;;;8.81;80.42
4024;BME280;2026;51.002;13.668;2023-01-13T10:12:26;98380.66;;;8.89;79.91
4024;BME280;2026;51.002;13.668;2023-01-13T10:17:50;98384.56;;;8.61;79.31
4024;BME280;2026;51.002;13.668;2023-01-13T10:23:04;98380.16;;;8.80;78.03
4024;BME280;2026;51.002;13.668;2023-01-13T10:28:12;98384.06;;;8.71;77.77
4024;BME280;2026;51.002;13.668;2023-01-13T10:33:21;98353.94;;;8.68;78.72
4024;BME280;2026;51.002;13.668;2023-01-13T10:38:29;98339.84;;;8.69;77.93
4024;BME280;2026;51.002;13.668;2023-01-13T10:43:41;98340.63;;;8.69;77.55
4024;BME280;2026;51.002;13.668;2023-01-13T10:48:52;98329.38;;;8.50;79.15
4024;BME280;2026;51.002;13.668;2023-01-13T10:53:59;98316.09;;;8.26;79.32
4024;BME280;2026;51.002;13.668;2023-01-13T10:59:13;98305.25;;;8.30;79.72
4024;BME280;2026;51.002;13.668;2023-01-13T11:04:31;98302.47;;;8.24;80.60
4024;BME280;2026;51.002;13.668;2023-01-13T11:09:34;98332.53;;;8.34;80.52
4024;BME280;2026;51.002;13.668;2023-01-13T11:14:40;98331.31;;;8.36;79.07
4024;BME280;2026;51.002;13.668;2023-01-13T11:19:49;98345.38;;;8.10;79.93
4024;BME280;2026;51.002;13.668;2023-01-13T11:24:58;98353.22;;;8.10;80.91
4024;BME280;2026;51.002;13.668;2023-01-13T11:30:09;98337.16;;;8.32;78.67
4024;BME280;2026;51.002;13.668;2023-01-13T11:35:17;98326.78;;;8.50;77.53
4024;BME280;2026;51.002;13.668;2023-01-13T11:40:30;98338.22;;;8.49;76.78
4024;BME280;2026;51.002;13.668;2023-01-13T11:45:40;98348.78;;;8.10;79.56
4024;BME280;2026;51.002;13.668;2023-01-13T11:50:47;98366.34;;;8.29;79.09
4024;BME280;2026;51.002;13.668;2023-01-13T11:56:07;98362.28;;;8.33;78.25
4024;BME280;2026;51.002;13.668;2023-01-13T12:01:31;98338.94;;;8.38;77.67
4024;BME280;2026;51.002;13.668;2023-01-13T12:06:38;98304.25;;;8.49;73.80
4024;BME280;2026;51.002;13.668;2023-01-13T12:11:50;98330.34;;;8.75;74.64
4024;BME280;2026;51.002;13.668;2023-01-13T12:17:22;98339.41;;;8.72;72.29
4024;BME280;2026;51.002;13.668;2023-01-13T12:22:30;98337.09;;;8.82;71.24
4024;BME280;2026;51.002;13.668;2023-01-13T12:27:40;98340.78;;;8.75;70.82
4024;BME280;2026;51.002;13.668;2023-01-13T12:32:49;98335.28;;;9.02;70.19
4024;BME280;2026;51.002;13.668;2023-01-13T12:37:59;98320.59;;;8.82;70.95
4024;BME280;2026;51.002;13.668;2023-01-13T12:43:14;98337.38;;;8.74;71.80
4024;BME280;2026;51.002;13.668;2023-01-13T12:49:05;98345.28;;;8.67;72.85
4024;BME280;2026;51.002;13.668;2023-01-13T12:54:31;98353.66;;;8.95;71.73
4024;BME280;2026;51.002;13.668;2023-01-13T12:59:35;98356.44;;;9.31;71.45
4024;BME280;2026;51.002;13.668;2023-01-13T13:04:44;98350.06;;;9.27;70.17
4024;BME280;2026;51.002;13.668;2023-01-13T13:09:54;98350.72;;;9.03;70.62
4024;BME280;2026;51.002;13.668;2023-01-13T13:15:01;98346.72;;;9.01;70.30
4024;BME280;2026;51.002;13.668;2023-01-13T13:26:03;98348.69;;;8.68;71.97
4024;BME280;2026;51.002;13.668;2023-01-13T13:31:20;98355.06;;;8.53;72.40
4024;BME280;2026;51.002;13.668;2023-01-13T13:36:39;98355.81;;;8.79;72.11
4024;BME280;2026;51.002;13.668;2023-01-13T13:41:50;98364.75;;;8.72;72.04
4024;BME280;2026;51.002;13.668;2023-01-13T13:47:12;98357.69;;;8.72;71.55
4024;BME280;2026;51.002;13.668;2023-01-13T13:52:20;98363.16;;;8.71;71.59
4024;BME280;2026;51.002;13.668;2023-01-13T13:57:30;98371.03;;;8.64;71.36
4024;BME280;2026;51.002;13.668;2023-01-13T14:02:36;98362.47;;;8.57;72.05
4024;BME280;2026;51.002;13.668;2023-01-13T14:07:47;98361.25;;;8.59;71.16
4024;BME280;2026;51.002;13.668;2023-01-13T14:12:50;98360.19;;;8.67;71.83
4024;BME280;2026;51.002;13.668;2023-01-13T14:17:53;98375.41;;;8.51;71.18
4024;BME280;2026;51.002;13.668;2023-01-13T14:22:58;98381.28;;;8.65;70.77
4024;BME280;2026;51.002;13.668;2023-01-13T14:28:19;98394.78;;;8.62;69.91
4024;BME280;2026;51.002;13.668;2023-01-13T14:33:28;98396.88;;;8.53;70.02
4024;BME280;2026;51.002;13.668;2023-01-13T14:38:36;98412.56;;;8.53;69.31
4024;BME280;2026;51.002;13.668;2023-01-13T14:43:42;98420.44;;;8.47;68.48
4024;BME280;2026;51.002;13.668;2023-01-13T14:48:46;98424.88;;;8.46;68.51
4024;BME280;2026;51.002;13.668;2023-01-13T14:53:51;98434.84;;;8.56;68.12
4024;BME280;2026;51.002;13.668;2023-01-13T14:58:54;98450.53;;;8.56;68.41
4024;BME280;2026;51.002;13.668;2023-01-13T15:04:15;98453.16;;;8.49;68.97
4024;BME280;2026;51.002;13.668;2023-01-13T15:09:23;98448.38;;;8.46;68.17
4024;BME280;2026;51.002;13.668;2023-01-13T15:14:29;98462.25;;;8.47;69.54
4024;BME280;2026;51.002;13.668;2023-01-13T15:19:36;98512.41;;;7.84;69.21
4024;BME280;2026;51.002;13.668;2023-01-13T15:24:43;98480.63;;;6.34;74.23
4024;BME280;2026;51.002;13.668;2023-01-13T15:29:46;98471.03;;;6.82;73.15
4024;BME280;2026;51.002;13.668;2023-01-13T15:34:49;98499.69;;;6.41;75.35
4024;BME280;2026;51.002;13.668;2023-01-13T15:39:55;98487.50;;;6.69;74.69
4024;BME280;2026;51.002;13.668;2023-01-13T15:44:58;98478.09;;;6.74;74.17
4024;BME280;2026;51.002;13.668;2023-01-13T15:50:21;98479.50;;;6.63;74.79
4024;BME280;2026;51.002;13.668;2023-01-13T15:55:29;98476.28;;;6.55;75.20
4024;BME280;2026;51.002;13.668;2023-01-13T16:00:32;98493.50;;;6.89;74.32
4024;BME280;2026;51.002;13.668;2023-01-13T16:05:35;98492.13;;;7.07;73.08
4024;BME280;2026;51.002;13.668;2023-01-13T16:10:39;98493.31;;;7.11;72.84
4024;BME280;2026;51.002;13.668;2023-01-13T16:15:45;98491.13;;;7.15;72.97
4024;BME280;2026;51.002;13.668;2023-01-13T16:20:49;98487.88;;;7.13;72.63
4024;BME280;2026;51.002;13.668;2023-01-13T16:25:54;98489.69;;;7.19;73.21
4024;BME280;2026;51.002;13.668;2023-01-13T16:30:57;98502.34;;;7.15;73.24
4024;BME280;2026;51.002;13.668;2023-01-13T16:36:00;98497.53;;;7.12;72.91
4024;BME280;2026;51.002;13.668;2023-01-13T16:41:14;98494.13;;;7.12;72.50
4024;BME280;2026;51.002;13.668;2023-01-13T16:46:23;98500.53;;;7.16;71.33
4024;BME280;2026;51.002;13.668;2023-01-13T16:51:26;98513.38;;;7.17;71.77
4024;BME280;2026;51.002;13.668;2023-01-13T16:56:33;98522.59;;;7.13;71.56
4024;BME280;2026;51.002;13.668;2023-01-13T17:01:38;98510.19;;;7.02;71.54
4024;BME280;2026;51.002;13.668;2023-01-13T17:06:48;98522.16;;;6.96;71.28
4024;BME280;2026;51.002;13.668;2023-01-13T17:11:54;98535.19;;;6.96;70.09
4024;BME280;2026;51.002;13.668;2023-01-13T17:16:57;98543.63;;;6.92;69.90
4024;BME280;2026;51.002;13.668;2023-01-13T17:22:00;98574.72;;;6.86;69.56
4024;BME280;2026;51.002;13.668;2023-01-13T17:27:05;98561.84;;;6.78;69.08
4024;BME280;2026;51.002;13.668;2023-01-13T17:32:08;98573.50;;;6.75;69.00
4024;BME280;2026;51.002;13.668;2023-01-13T17:37:16;98570.66;;;6.77;68.26
4024;BME280;2026;51.002;13.668;2023-01-13T17:42:20;98563.84;;;6.69;68.53
4024;BME280;2026;51.002;13.668;2023-01-13T17:47:25;98580.31;;;6.76;69.35
4024;BME280;2026;51.002;13.668;2023-01-13T17:52:29;98589.31;;;6.81;68.80
4024;BME280;2026;51.002;13.668;2023-01-13T17:57:33;98587.13;;;6.91;68.39
4024;BME280;2026;51.002;13.668;2023-01-13T18:02:36;98595.97;;;6.97;67.61
4024;BME280;2026;51.002;13.668;2023-01-13T18:07:39;98597.81;;;7.03;67.94
4024;BME280;2026;51.002;13.668;2023-01-13T18:12:43;98627.47;;;7.09;67.95
4024;BME280;2026;51.002;13.668;2023-01-13T18:17:46;98636.91;;;7.23;67.51
4024;BME280;2026;51.002;13.668;2023-01-13T18:22:50;98633.50;;;7.23;69.26
4024;BME280;2026;51.002;13.668;2023-01-13T18:28:11;98634.91;;;7.19;69.15
4024;BME280;2026;51.002;13.668;2023-01-13T18:33:14;98638.50;;;7.31;68.95
4024;BME280;2026;51.002;13.668;2023-01-13T18:38:17;98647.72;;;7.20;69.03
4024;BME280;2026;51.002;13.668;2023-01-13T18:43:22;98641.53;;;7.28;68.27
4024;BME280;2026;51.002;13.668;2023-01-13T18:48:24;98639.31;;;7.38;68.19
4024;BME280;2026;51.002;13.668;2023-01-13T18:53:27;98629.09;;;7.50;68.51
4024;BME280;2026;51.002;13.668;2023-01-13T18:58:32;98635.31;;;7.49;68.13
4024;BME280;2026;51.002;13.668;2023-01-13T19:03:35;98649.34;;;7.55;67.60
4024;BME280;2026;51.002;13.668;2023-01-13T19:08:38;98662.22;;;7.50;66.89
4024;BME280;2026;51.002;13.668;2023-01-13T19:13:42;98667.03;;;7.46;67.15
4024;BME280;2026;51.002;13.668;2023-01-13T19:18:45;98663.00;;;7.50;67.32
4024;BME280;2026;51.002;13.668;2023-01-13T19:23:51;98666.22;;;7.45;68.21
4024;BME280;2026;51.002;13.668;2023-01-13T19:28:56;98672.63;;;7.43;67.83
4024;BME280;2026;51.002;13.668;2023-01-13T19:33:59;98688.28;;;7.36;68.33
4024;BME280;2026;51.002;13.668;2023-01-13T19:39:02;98690.66;;;7.31;69.54
4024;BME280;2026;51.002;13.668;2023-01-13T19:44:08;98681.88;;;7.39;69.00
4024;BME280;2026;51.002;13.668;2023-01-13T19:49:30;98701.53;;;7.41;69.68
4024;BME280;2026;51.002;13.668;2023-01-13T19:54:33;98698.50;;;7.31;69.73
4024;BME280;2026;51.002;13.668;2023-01-13T19:59:38;98712.34;;;7.31;69.55
4024;BME280;2026;51.002;13.668;2023-01-13T20:04:42;98707.31;;;7.37;68.95
4024;BME280;2026;51.002;13.668;2023-01-13T20:09:45;98727.22;;;7.38;69.34
4024;BME280;2026;51.002;13.668;2023-01-13T20:14:50;98732.63;;;7.36;69.59
4024;BME280;2026;51.002;13.668;2023-01-13T20:19:53;98737.19;;;7.27;71.29
4024;BME280;2026;51.002;13.668;2023-01-13T20:24:56;98743.63;;;7.25;71.66
4024;BME280;2026;51.002;13.668;2023-01-13T20:30:01;98757.25;;;7.20;71.93
4024;BME280;2026;51.002;13.668;2023-01-13T20:35:05;98771.28;;;7.19;71.97
4024;BME280;2026;51.002;13.668;2023-01-13T20:40:12;98777.31;;;7.26;71.11
4024;BME280;2026;51.002;13.668;2023-01-13T20:45:17;98765.28;;;7.25;71.72
4024;BME280;2026;51.002;13.668;2023-01-13T20:50:22;98774.13;;;7.24;71.17
4024;BME280;2026;51.002;13.668;2023-01-13T20:55:25;98766.47;;;7.23;71.51
4024;BME280;2026;51.002;13.668;2023-01-13T21:00:29;98760.84;;;7.12;71.21
4024;BME280;2026;51.002;13.668;2023-01-13T21:05:34;98765.47;;;7.10;72.21
4024;BME280;2026;51.002;13.668;2023-01-13T21:10:37;98772.47;;;7.16;71.90
4024;BME280;2026;51.002;13.668;2023-01-13T21:15:46;98782.72;;;7.18;72.78
4024;BME280;2026;51.002;13.668;2023-01-13T21:20:49;98775.88;;;7.10;72.48
4024;BME280;2026;51.002;13.668;2023-01-13T21:26:11;98796.75;;;7.10;73.39
4024;BME280;2026;51.002;13.668;2023-01-13T21:31:17;98795.00;;;7.31;72.89
4024;BME280;2026;51.002;13.668;2023-01-13T21:36:20;98799.41;;;7.30;73.52
4024;BME280;2026;51.002;13.668;2023-01-13T21:41:24;98816.25;;;7.28;72.71
4024;BME280;2026;51.002;13.668;2023-01-13T21:46:46;98814.41;;;7.22;72.46
4024;BME280;2026;51.002;13.668;2023-01-13T21:52:06;98832.25;;;7.18;73.16
4024;BME280;2026;51.002;13.668;2023-01-13T21:57:09;98839.53;;;7.29;72.99
4024;BME280;2026;51.002;13.668;2023-01-13T22:02:13;98832.50;;;7.30;72.84
4024;BME280;2026;51.002;13.668;2023-01-13T22:07:33;98851.31;;;7.19;73.23
4024;BME280;2026;51.002;13.668;2023-01-13T22:12:36;98855.06;;;7.09;73.33
4024;BME280;2026;51.002;13.668;2023-01-13T22:17:41;98850.66;;;7.03;73.60
4024;BME280;2026;51.002;13.668;2023-01-13T22:22:46;98860.25;;;7.02;74.04
4024;BME280;2026;51.002;13.668;2023-01-13T22:27:49;98871.13;;;7.13;72.50
4024;BME280;2026;51.002;13.668;2023-01-13T22:32:57;98865.91;;;7.06;72.65
4024;BME280;2026;51.002;13.668;2023-01-13T22:38:00;98882.66;;;6.97;74.06
4024;BME280;2026;51.002;13.668;2023-01-13T22:43:03;98888.53;;;7.06;73.88
4024;BME280;2026;51.002;13.668;2023-01-13T22:48:08;98891.63;;;7.16;72.96
4024;BME280;2026;51.002;13.668;2023-01-13T22:53:11;98898.41;;;7.10;73.64
4024;BME280;2026;51.002;13.668;2023-01-13T22:58:14;98896.44;;;7.19;73.35
4024;BME280;2026;51.002;13.668;2023-01-13T23:03:18;98902.00;;;7.09;74.86
4024;BME280;2026;51.002;13.668;2023-01-13T23:08:21;98912.50;;;7.23;75.22
4024;BME280;2026;51.002;13.668;2023-01-13T23:13:24;98917.22;;;7.06;76.92
4024;BME280;2026;51.002;13.668;2023-01-13T23:18:28;98920.03;;;7.04;77.69
4024;BME280;2026;51.002;13.668;2023-01-13T23:23:32;98921.78;;;6.97;77.09
4024;BME280;2026;51.002;13.668;2023-01-13T23:28:35;98913.69;;;6.92;77.71
4024;BME280;2026;51.002;13.668;2023-01-13T23:33:40;98912.34;;;6.96;77.03
4024;BME280;2026;51.002;13.668;2023-01-13T23:38:44;98916.75;;;6.95;76.24
4024;BME280;2026;51.002;13.668;2023-01-13T23:43:50;98928.31;;;6.86;76.60
4024;BME280;2026;51.002;13.668;2023-01-13T23:48:55;98927.88;;;6.82;75.78
4024;BME280;2026;51.002;13.668;2023-01-13T23:53:58;98935.53;;;6.84;76.24
4024;BME280;2026;51.002;13.668;2023-01-13T23:59:01;98930.50;;;6.82;76.30
